Newport, NH

8:10 PM EST on March 01, 2015 (GMT -0500)
East Unity, N. H. | Change Station
CLOSE
Current Station
Personal Weather Station
Location: Unity, NH
Elevation: 1384 ft
Nearby Weather Stations

Elev 1384 ft 43.29 °N, 72.19 °W | Updated 2 seconds ago

Snow
Snow
20.1 °F
Feels Like 20 °F
N
1.0
Wind Variable Wind from NNE
Gusts 3.0 mph

Today
High -- | Low -- °F
--% Chance of Precip.
Yesterday
High -- | Low -- °F
Precip. -- in
6:25 AM 5:37 PM
Waxing Gibbous, 88% visible
Pressure 30.25 in
Visibility 1.5 miles
Clouds Overcast 1800 ft
Windchill 20 °F
Dew Point 18 °F
Humidity 90%
Rainfall 0.00 in
Snow Depth Not available.
UV 0 out of 12
Pollen .30 out of 12
Air Quality Not available.
Flu Activity Not available.
METAR KVSF 020054Z AUTO 00000KT 1 1/2SM -SN BR OVC018 M06/M07 A3021 RMK AO2 SLP243 P0003 T10611072 TSNO $

More Conditions Fewer Conditions

Pressure 30.25 in
Visibility 1.5 miles
Clouds Overcast 1800 ft
Windchill 20 °F
Dew Point 18 °F
Humidity 90%
Rainfall 0.00 in
Snow Depth Not available.
UV 0 out of 12
Pollen .30 out of 12
Air Quality Not available.
Flu Activity Not available.
METAR KVSF 020054Z AUTO 00000KT 1 1/2SM -SN BR OVC018 M06/M07 A3021 RMK AO2 SLP243 P0003 T10611072 TSNO $

More Conditions Fewer Conditions

10-Day Weather Forecast

Almanac

Astronomy

Mar. 01, 2015 Rise Set
Actual Time
Civil Twilight
Nautical Twilight
Astronomical Twilight
Moon
Length of Visible Light
Length of Day
Tomorrow will be .
, % of the Moon is Illuminated

Today's Extremes

State Highs State Lows

Community

WunderPhotos

Upload Photos

1,801,670 photos uploaded!

WunderBlogs® & News

Nearby

Air Quality

  Air Quality AQ Index Pollutant
Not available.

Snow Depth

Station Depth Elevation

Earthquake Activity

City Distance Mag. Time & Date
Minimum magnitude displayed is 2.5.

Coastal Water Temperatures

Place Temperature

Nearby Weather Stations